sensor_id;sensor_type;location;lat;lon;timestamp;P1;durP1;ratioP1;P2;durP2;ratioP2
44120;SDS011;29783;52.504;13.478;2023-12-14T00:02:02;23.63;;;14.60;;
44120;SDS011;29783;52.504;13.478;2023-12-14T00:04:28;29.95;;;16.80;;
44120;SDS011;29783;52.504;13.478;2023-12-14T00:06:54;21.08;;;15.65;;
44120;SDS011;29783;52.504;13.478;2023-12-14T00:09:19;27.33;;;16.02;;
44120;SDS011;29783;52.504;13.478;2023-12-14T00:11:45;23.48;;;14.90;;
44120;SDS011;29783;52.504;13.478;2023-12-14T00:14:10;23.55;;;15.23;;
44120;SDS011;29783;52.504;13.478;2023-12-14T00:16:36;27.45;;;16.73;;
44120;SDS011;29783;52.504;13.478;2023-12-14T00:19:01;29.02;;;16.65;;
44120;SDS011;29783;52.504;13.478;2023-12-14T00:21:27;32.28;;;16.55;;
44120;SDS011;29783;52.504;13.478;2023-12-14T00:23:53;23.73;;;15.50;;
44120;SDS011;29783;52.504;13.478;2023-12-14T00:26:18;26.42;;;16.02;;
44120;SDS011;29783;52.504;13.478;2023-12-14T00:28:44;21.90;;;16.02;;
44120;SDS011;29783;52.504;13.478;2023-12-14T00:31:10;22.38;;;14.63;;
44120;SDS011;29783;52.504;13.478;2023-12-14T00:33:35;25.70;;;16.50;;
44120;SDS011;29783;52.504;13.478;2023-12-14T00:36:01;23.75;;;14.30;;
44120;SDS011;29783;52.504;13.478;2023-12-14T00:38:27;22.00;;;14.98;;
44120;SDS011;29783;52.504;13.478;2023-12-14T00:40:52;26.33;;;16.33;;
44120;SDS011;29783;52.504;13.478;2023-12-14T00:43:18;26.02;;;14.75;;
44120;SDS011;29783;52.504;13.478;2023-12-14T00:45:43;25.80;;;13.93;;
44120;SDS011;29783;52.504;13.478;2023-12-14T00:48:09;21.42;;;13.70;;
44120;SDS011;29783;52.504;13.478;2023-12-14T00:50:35;25.05;;;14.15;;
44120;SDS011;29783;52.504;13.478;2023-12-14T00:53:00;23.85;;;14.73;;
44120;SDS011;29783;52.504;13.478;2023-12-14T00:55:26;20.73;;;13.15;;
44120;SDS011;29783;52.504;13.478;2023-12-14T00:57:51;24.52;;;14.23;;
44120;SDS011;29783;52.504;13.478;2023-12-14T01:00:17;28.35;;;13.25;;
44120;SDS011;29783;52.504;13.478;2023-12-14T01:02:44;19.90;;;12.88;;
44120;SDS011;29783;52.504;13.478;2023-12-14T01:05:09;20.30;;;12.75;;
44120;SDS011;29783;52.504;13.478;2023-12-14T01:07:35;23.02;;;13.18;;
44120;SDS011;29783;52.504;13.478;2023-12-14T01:10:01;21.92;;;12.75;;
44120;SDS011;29783;52.504;13.478;2023-12-14T01:12:26;17.33;;;12.38;;
44120;SDS011;29783;52.504;13.478;2023-12-14T01:14:52;19.00;;;11.45;;
44120;SDS011;29783;52.504;13.478;2023-12-14T01:17:18;18.25;;;12.23;;
44120;SDS011;29783;52.504;13.478;2023-12-14T01:19:43;16.27;;;11.48;;
44120;SDS011;29783;52.504;13.478;2023-12-14T01:22:09;24.10;;;11.48;;
44120;SDS011;29783;52.504;13.478;2023-12-14T01:24:35;18.70;;;12.20;;
44120;SDS011;29783;52.504;13.478;2023-12-14T01:27:01;22.67;;;12.55;;
44120;SDS011;29783;52.504;13.478;2023-12-14T01:29:26;21.05;;;12.13;;
44120;SDS011;29783;52.504;13.478;2023-12-14T01:31:52;18.10;;;12.80;;
44120;SDS011;29783;52.504;13.478;2023-12-14T01:34:17;16.45;;;11.63;;
44120;SDS011;29783;52.504;13.478;2023-12-14T01:36:43;23.42;;;11.48;;
44120;SDS011;29783;52.504;13.478;2023-12-14T01:39:08;19.48;;;12.75;;
44120;SDS011;29783;52.504;13.478;2023-12-14T01:41:34;19.02;;;12.13;;
44120;SDS011;29783;52.504;13.478;2023-12-14T01:44:00;20.63;;;12.30;;
44120;SDS011;29783;52.504;13.478;2023-12-14T01:46:25;20.15;;;12.13;;
44120;SDS011;29783;52.504;13.478;2023-12-14T01:48:51;19.15;;;12.30;;
44120;SDS011;29783;52.504;13.478;2023-12-14T01:51:18;18.88;;;11.75;;
44120;SDS011;29783;52.504;13.478;2023-12-14T01:53:43;19.70;;;10.50;;
44120;SDS011;29783;52.504;13.478;2023-12-14T01:56:09;20.73;;;10.10;;
44120;SDS011;29783;52.504;13.478;2023-12-14T01:58:35;14.23;;;8.93;;
44120;SDS011;29783;52.504;13.478;2023-12-14T02:03:33;15.05;;;9.77;;
44120;SDS011;29783;52.504;13.478;2023-12-14T02:05:59;12.98;;;8.93;;
44120;SDS011;29783;52.504;13.478;2023-12-14T02:08:25;14.60;;;8.15;;
44120;SDS011;29783;52.504;13.478;2023-12-14T02:10:52;18.50;;;8.88;;
44120;SDS011;29783;52.504;13.478;2023-12-14T02:13:18;18.38;;;9.02;;
44120;SDS011;29783;52.504;13.478;2023-12-14T02:15:44;14.80;;;8.85;;
44120;SDS011;29783;52.504;13.478;2023-12-14T02:18:09;15.75;;;8.55;;
44120;SDS011;29783;52.504;13.478;2023-12-14T02:20:35;11.88;;;7.07;;
44120;SDS011;29783;52.504;13.478;2023-12-14T02:23:00;18.58;;;7.85;;
44120;SDS011;29783;52.504;13.478;2023-12-14T02:25:26;10.05;;;6.68;;
44120;SDS011;29783;52.504;13.478;2023-12-14T02:27:52;13.27;;;7.45;;
44120;SDS011;29783;52.504;13.478;2023-12-14T02:30:18;11.18;;;7.25;;
44120;SDS011;29783;52.504;13.478;2023-12-14T02:32:43;11.48;;;7.03;;
44120;SDS011;29783;52.504;13.478;2023-12-14T02:35:09;12.95;;;7.20;;
44120;SDS011;29783;52.504;13.478;2023-12-14T02:37:35;14.15;;;7.30;;
44120;SDS011;29783;52.504;13.478;2023-12-14T02:40:05;9.93;;;7.28;;
44120;SDS011;29783;52.504;13.478;2023-12-14T02:42:32;14.05;;;7.93;;
44120;SDS011;29783;52.504;13.478;2023-12-14T02:44:58;12.60;;;7.88;;
44120;SDS011;29783;52.504;13.478;2023-12-14T02:47:23;17.13;;;9.43;;
44120;SDS011;29783;52.504;13.478;2023-12-14T02:49:49;18.42;;;8.98;;
44120;SDS011;29783;52.504;13.478;2023-12-14T02:52:14;18.27;;;9.40;;
44120;SDS011;29783;52.504;13.478;2023-12-14T02:54:40;14.95;;;9.43;;
44120;SDS011;29783;52.504;13.478;2023-12-14T02:57:06;19.85;;;9.30;;
44120;SDS011;29783;52.504;13.478;2023-12-14T02:59:31;22.25;;;9.85;;
44120;SDS011;29783;52.504;13.478;2023-12-14T03:01:57;18.40;;;9.75;;
44120;SDS011;29783;52.504;13.478;2023-12-14T03:04:23;14.02;;;8.77;;
44120;SDS011;29783;52.504;13.478;2023-12-14T03:06:48;15.45;;;9.18;;
44120;SDS011;29783;52.504;13.478;2023-12-14T03:09:14;15.15;;;8.85;;
44120;SDS011;29783;52.504;13.478;2023-12-14T03:11:39;17.95;;;10.13;;
44120;SDS011;29783;52.504;13.478;2023-12-14T03:14:05;15.48;;;9.57;;
44120;SDS011;29783;52.504;13.478;2023-12-14T03:16:31;17.42;;;8.75;;
44120;SDS011;29783;52.504;13.478;2023-12-14T03:18:56;14.95;;;9.30;;
44120;SDS011;29783;52.504;13.478;2023-12-14T03:21:22;17.75;;;9.80;;
44120;SDS011;29783;52.504;13.478;2023-12-14T03:23:48;20.52;;;9.88;;
44120;SDS011;29783;52.504;13.478;2023-12-14T03:26:15;14.27;;;9.32;;
44120;SDS011;29783;52.504;13.478;2023-12-14T03:28:41;16.88;;;9.57;;
44120;SDS011;29783;52.504;13.478;2023-12-14T03:31:06;18.70;;;9.77;;
44120;SDS011;29783;52.504;13.478;2023-12-14T03:33:32;16.58;;;9.95;;
44120;SDS011;29783;52.504;13.478;2023-12-14T03:35:58;17.63;;;8.82;;
44120;SDS011;29783;52.504;13.478;2023-12-14T03:38:24;17.92;;;9.77;;
44120;SDS011;29783;52.504;13.478;2023-12-14T03:40:50;17.85;;;10.05;;
44120;SDS011;29783;52.504;13.478;2023-12-14T03:43:15;14.32;;;8.93;;
44120;SDS011;29783;52.504;13.478;2023-12-14T03:45:41;14.02;;;8.80;;
44120;SDS011;29783;52.504;13.478;2023-12-14T03:48:07;18.02;;;8.73;;
44120;SDS011;29783;52.504;13.478;2023-12-14T03:50:32;14.15;;;7.93;;
44120;SDS011;29783;52.504;13.478;2023-12-14T03:52:58;17.38;;;7.30;;
44120;SDS011;29783;52.504;13.478;2023-12-14T03:55:24;16.13;;;8.70;;
44120;SDS011;29783;52.504;13.478;2023-12-14T03:57:50;12.82;;;8.23;;
44120;SDS011;29783;52.504;13.478;2023-12-14T04:00:15;12.95;;;7.78;;
44120;SDS011;29783;52.504;13.478;2023-12-14T04:02:41;13.98;;;8.05;;
44120;SDS011;29783;52.504;13.478;2023-12-14T04:05:07;13.57;;;8.13;;
44120;SDS011;29783;52.504;13.478;2023-12-14T04:07:34;15.65;;;8.43;;
44120;SDS011;29783;52.504;13.478;2023-12-14T04:10:06;12.95;;;7.25;;
44120;SDS011;29783;52.504;13.478;2023-12-14T04:12:33;12.52;;;7.30;;
44120;SDS011;29783;52.504;13.478;2023-12-14T04:14:59;13.18;;;7.45;;
44120;SDS011;29783;52.504;13.478;2023-12-14T04:17:25;11.00;;;7.35;;
44120;SDS011;29783;52.504;13.478;2023-12-14T04:19:51;15.15;;;6.85;;
44120;SDS011;29783;52.504;13.478;2023-12-14T04:22:16;13.70;;;7.22;;
44120;SDS011;29783;52.504;13.478;2023-12-14T04:24:42;14.15;;;6.90;;
44120;SDS011;29783;52.504;13.478;2023-12-14T04:27:07;10.52;;;6.75;;
44120;SDS011;29783;52.504;13.478;2023-12-14T04:29:33;12.30;;;6.95;;
44120;SDS011;29783;52.504;13.478;2023-12-14T04:31:58;16.58;;;6.90;;
44120;SDS011;29783;52.504;13.478;2023-12-14T04:34:24;13.02;;;7.45;;
44120;SDS011;29783;52.504;13.478;2023-12-14T04:36:49;18.13;;;6.65;;
44120;SDS011;29783;52.504;13.478;2023-12-14T04:39:15;14.32;;;7.68;;
44120;SDS011;29783;52.504;13.478;2023-12-14T04:41:42;12.05;;;7.35;;
44120;SDS011;29783;52.504;13.478;2023-12-14T04:44:07;13.00;;;7.45;;
44120;SDS011;29783;52.504;13.478;2023-12-14T04:46:35;15.35;;;7.25;;
44120;SDS011;29783;52.504;13.478;2023-12-14T04:49:00;12.93;;;7.07;;
44120;SDS011;29783;52.504;13.478;2023-12-14T04:51:26;12.50;;;7.30;;
44120;SDS011;29783;52.504;13.478;2023-12-14T04:53:52;13.25;;;6.70;;
44120;SDS011;29783;52.504;13.478;2023-12-14T04:56:17;13.98;;;6.95;;
44120;SDS011;29783;52.504;13.478;2023-12-14T04:58:43;15.20;;;6.65;;
44120;SDS011;29783;52.504;13.478;2023-12-14T05:01:09;14.48;;;6.78;;
44120;SDS011;29783;52.504;13.478;2023-12-14T05:03:34;16.25;;;7.90;;
44120;SDS011;29783;52.504;13.478;2023-12-14T05:06:00;11.20;;;6.72;;
44120;SDS011;29783;52.504;13.478;2023-12-14T05:08:26;9.73;;;6.22;;
44120;SDS011;29783;52.504;13.478;2023-12-14T05:10:52;11.32;;;7.13;;
44120;SDS011;29783;52.504;13.478;2023-12-14T05:13:17;10.27;;;6.68;;
44120;SDS011;29783;52.504;13.478;2023-12-14T05:15:43;10.82;;;7.07;;
44120;SDS011;29783;52.504;13.478;2023-12-14T05:18:09;11.07;;;7.97;;
44120;SDS011;29783;52.504;13.478;2023-12-14T05:20:35;15.27;;;7.88;;
44120;SDS011;29783;52.504;13.478;2023-12-14T05:23:01;11.25;;;7.15;;
44120;SDS011;29783;52.504;13.478;2023-12-14T05:25:26;14.63;;;7.68;;
44120;SDS011;29783;52.504;13.478;2023-12-14T05:27:52;12.63;;;7.93;;
44120;SDS011;29783;52.504;13.478;2023-12-14T05:30:18;15.63;;;7.90;;
44120;SDS011;29783;52.504;13.478;2023-12-14T05:32:44;14.38;;;7.88;;
44120;SDS011;29783;52.504;13.478;2023-12-14T05:35:10;17.52;;;7.80;;
44120;SDS011;29783;52.504;13.478;2023-12-14T05:37:38;11.93;;;7.88;;
44120;SDS011;29783;52.504;13.478;2023-12-14T05:40:04;11.75;;;7.40;;
44120;SDS011;29783;52.504;13.478;2023-12-14T05:42:30;15.48;;;7.75;;
44120;SDS011;29783;52.504;13.478;2023-12-14T05:44:56;9.93;;;6.72;;
44120;SDS011;29783;52.504;13.478;2023-12-14T05:47:21;14.43;;;7.55;;
44120;SDS011;29783;52.504;13.478;2023-12-14T05:49:47;12.40;;;7.60;;
44120;SDS011;29783;52.504;13.478;2023-12-14T05:52:13;9.68;;;7.35;;
44120;SDS011;29783;52.504;13.478;2023-12-14T05:54:39;9.60;;;7.45;;
44120;SDS011;29783;52.504;13.478;2023-12-14T05:57:05;11.20;;;6.57;;
44120;SDS011;29783;52.504;13.478;2023-12-14T05:59:39;12.90;;;6.97;;
44120;SDS011;29783;52.504;13.478;2023-12-14T06:06:04;8.43;;;6.05;;
44120;SDS011;29783;52.504;13.478;2023-12-14T06:08:30;10.70;;;6.15;;
44120;SDS011;29783;52.504;13.478;2023-12-14T06:10:55;7.78;;;6.18;;
44120;SDS011;29783;52.504;13.478;2023-12-14T06:13:21;9.10;;;6.30;;
44120;SDS011;29783;52.504;13.478;2023-12-14T06:15:47;8.02;;;6.07;;
44120;SDS011;29783;52.504;13.478;2023-12-14T06:18:12;9.93;;;6.00;;
44120;SDS011;29783;52.504;13.478;2023-12-14T06:20:39;11.95;;;5.60;;
44120;SDS011;29783;52.504;13.478;2023-12-14T06:23:05;11.27;;;6.43;;
44120;SDS011;29783;52.504;13.478;2023-12-14T06:25:31;7.55;;;5.90;;
44120;SDS011;29783;52.504;13.478;2023-12-14T06:27:57;7.32;;;5.68;;
44120;SDS011;29783;52.504;13.478;2023-12-14T06:30:23;7.32;;;6.15;;
44120;SDS011;29783;52.504;13.478;2023-12-14T06:32:48;8.50;;;6.57;;
44120;SDS011;29783;52.504;13.478;2023-12-14T06:35:14;7.03;;;6.32;;
44120;SDS011;29783;52.504;13.478;2023-12-14T06:37:40;10.35;;;6.25;;
44120;SDS011;29783;52.504;13.478;2023-12-14T06:40:09;8.25;;;6.78;;
44120;SDS011;29783;52.504;13.478;2023-12-14T06:42:35;7.18;;;5.63;;
44120;SDS011;29783;52.504;13.478;2023-12-14T06:45:02;7.38;;;6.47;;
44120;SDS011;29783;52.504;13.478;2023-12-14T06:47:28;8.13;;;6.38;;
44120;SDS011;29783;52.504;13.478;2023-12-14T06:49:54;8.27;;;6.90;;
44120;SDS011;29783;52.504;13.478;2023-12-14T06:52:21;9.32;;;7.22;;
44120;SDS011;29783;52.504;13.478;2023-12-14T06:54:48;10.80;;;6.85;;
44120;SDS011;29783;52.504;13.478;2023-12-14T06:57:13;8.40;;;7.10;;
44120;SDS011;29783;52.504;13.478;2023-12-14T06:59:39;8.63;;;7.53;;
44120;SDS011;29783;52.504;13.478;2023-12-14T07:02:05;9.27;;;7.32;;
44120;SDS011;29783;52.504;13.478;2023-12-14T07:04:31;8.80;;;7.72;;
44120;SDS011;29783;52.504;13.478;2023-12-14T07:06:57;14.40;;;8.77;;
44120;SDS011;29783;52.504;13.478;2023-12-14T07:09:23;10.07;;;7.70;;
44120;SDS011;29783;52.504;13.478;2023-12-14T07:11:49;11.10;;;8.27;;
44120;SDS011;29783;52.504;13.478;2023-12-14T07:14:15;11.27;;;7.53;;
44120;SDS011;29783;52.504;13.478;2023-12-14T07:16:41;10.70;;;7.68;;
44120;SDS011;29783;52.504;13.478;2023-12-14T07:19:06;9.55;;;8.32;;
44120;SDS011;29783;52.504;13.478;2023-12-14T07:21:32;12.50;;;8.25;;
44120;SDS011;29783;52.504;13.478;2023-12-14T07:23:58;10.25;;;8.43;;
44120;SDS011;29783;52.504;13.478;2023-12-14T07:26:24;10.90;;;8.15;;
44120;SDS011;29783;52.504;13.478;2023-12-14T07:28:49;13.68;;;9.02;;
44120;SDS011;29783;52.504;13.478;2023-12-14T07:31:18;12.23;;;8.30;;
44120;SDS011;29783;52.504;13.478;2023-12-14T07:33:43;10.88;;;8.02;;
44120;SDS011;29783;52.504;13.478;2023-12-14T07:36:10;12.90;;;8.48;;
44120;SDS011;29783;52.504;13.478;2023-12-14T07:38:35;14.55;;;8.15;;
44120;SDS011;29783;52.504;13.478;2023-12-14T07:41:01;16.40;;;8.70;;
44120;SDS011;29783;52.504;13.478;2023-12-14T07:43:28;10.27;;;8.13;;
44120;SDS011;29783;52.504;13.478;2023-12-14T07:45:53;13.70;;;9.02;;
44120;SDS011;29783;52.504;13.478;2023-12-14T07:48:19;12.00;;;8.50;;
44120;SDS011;29783;52.504;13.478;2023-12-14T07:50:45;11.82;;;8.82;;
44120;SDS011;29783;52.504;13.478;2023-12-14T07:53:11;13.20;;;9.57;;
44120;SDS011;29783;52.504;13.478;2023-12-14T07:55:37;17.08;;;9.85;;
44120;SDS011;29783;52.504;13.478;2023-12-14T07:58:02;13.52;;;9.60;;
44120;SDS011;29783;52.504;13.478;2023-12-14T08:00:28;12.75;;;9.40;;
44120;SDS011;29783;52.504;13.478;2023-12-14T08:02:53;12.57;;;9.45;;
44120;SDS011;29783;52.504;13.478;2023-12-14T08:05:19;14.43;;;10.60;;
44120;SDS011;29783;52.504;13.478;2023-12-14T08:07:45;14.40;;;10.20;;
44120;SDS011;29783;52.504;13.478;2023-12-14T08:10:10;14.23;;;11.13;;
44120;SDS011;29783;52.504;13.478;2023-12-14T08:12:36;23.38;;;15.98;;
44120;SDS011;29783;52.504;13.478;2023-12-14T08:15:02;14.55;;;11.48;;
44120;SDS011;29783;52.504;13.478;2023-12-14T08:17:28;18.52;;;13.13;;
44120;SDS011;29783;52.504;13.478;2023-12-14T08:19:54;16.90;;;12.23;;
44120;SDS011;29783;52.504;13.478;2023-12-14T08:22:19;15.15;;;12.10;;
44120;SDS011;29783;52.504;13.478;2023-12-14T08:24:47;14.90;;;11.52;;
44120;SDS011;29783;52.504;13.478;2023-12-14T08:27:13;12.40;;;9.93;;
44120;SDS011;29783;52.504;13.478;2023-12-14T08:29:38;14.32;;;11.02;;
44120;SDS011;29783;52.504;13.478;2023-12-14T08:32:04;14.35;;;10.07;;
44120;SDS011;29783;52.504;13.478;2023-12-14T08:34:30;13.43;;;11.02;;
44120;SDS011;29783;52.504;13.478;2023-12-14T08:36:56;16.08;;;11.20;;
44120;SDS011;29783;52.504;13.478;2023-12-14T08:39:21;16.35;;;11.95;;
44120;SDS011;29783;52.504;13.478;2023-12-14T08:41:47;15.00;;;10.85;;
44120;SDS011;29783;52.504;13.478;2023-12-14T08:44:14;21.92;;;12.98;;
44120;SDS011;29783;52.504;13.478;2023-12-14T08:49:06;17.17;;;11.75;;
44120;SDS011;29783;52.504;13.478;2023-12-14T08:51:32;16.38;;;10.90;;
44120;SDS011;29783;52.504;13.478;2023-12-14T08:53:58;17.05;;;11.57;;
44120;SDS011;29783;52.504;13.478;2023-12-14T08:56:23;19.13;;;12.07;;
44120;SDS011;29783;52.504;13.478;2023-12-14T08:58:49;16.15;;;10.98;;
44120;SDS011;29783;52.504;13.478;2023-12-14T09:01:21;15.55;;;11.50;;
44120;SDS011;29783;52.504;13.478;2023-12-14T09:03:47;16.58;;;11.23;;
44120;SDS011;29783;52.504;13.478;2023-12-14T09:06:13;14.95;;;10.77;;
44120;SDS011;29783;52.504;13.478;2023-12-14T09:08:39;15.13;;;10.73;;
44120;SDS011;29783;52.504;13.478;2023-12-14T09:11:06;17.90;;;10.80;;
44120;SDS011;29783;52.504;13.478;2023-12-14T09:13:31;15.93;;;10.77;;
44120;SDS011;29783;52.504;13.478;2023-12-14T09:15:57;17.55;;;10.95;;
44120;SDS011;29783;52.504;13.478;2023-12-14T09:18:22;14.25;;;10.50;;
44120;SDS011;29783;52.504;13.478;2023-12-14T09:20:49;12.05;;;9.48;;
44120;SDS011;29783;52.504;13.478;2023-12-14T09:23:15;17.88;;;10.52;;
44120;SDS011;29783;52.504;13.478;2023-12-14T09:25:41;16.58;;;9.00;;
44120;SDS011;29783;52.504;13.478;2023-12-14T09:28:07;11.70;;;9.40;;
44120;SDS011;29783;52.504;13.478;2023-12-14T09:30:33;12.68;;;8.63;;
44120;SDS011;29783;52.504;13.478;2023-12-14T09:32:58;11.20;;;8.82;;
44120;SDS011;29783;52.504;13.478;2023-12-14T09:35:24;11.00;;;8.52;;
44120;SDS011;29783;52.504;13.478;2023-12-14T09:37:49;12.48;;;8.90;;
44120;SDS011;29783;52.504;13.478;2023-12-14T09:40:15;10.50;;;8.07;;
44120;SDS011;29783;52.504;13.478;2023-12-14T09:42:42;10.65;;;7.35;;
44120;SDS011;29783;52.504;13.478;2023-12-14T09:45:08;12.68;;;7.95;;
44120;SDS011;29783;52.504;13.478;2023-12-14T09:47:34;13.30;;;7.82;;
44120;SDS011;29783;52.504;13.478;2023-12-14T09:50:01;9.23;;;7.13;;
44120;SDS011;29783;52.504;13.478;2023-12-14T09:52:28;9.25;;;7.03;;
44120;SDS011;29783;52.504;13.478;2023-12-14T09:54:53;10.25;;;7.15;;
44120;SDS011;29783;52.504;13.478;2023-12-14T09:57:19;11.23;;;7.78;;
44120;SDS011;29783;52.504;13.478;2023-12-14T09:59:54;12.60;;;8.00;;
44120;SDS011;29783;52.504;13.478;2023-12-14T10:02:24;11.07;;;8.65;;
44120;SDS011;29783;52.504;13.478;2023-12-14T10:04:52;14.77;;;7.97;;
44120;SDS011;29783;52.504;13.478;2023-12-14T10:07:18;13.82;;;8.65;;
44120;SDS011;29783;52.504;13.478;2023-12-14T10:09:45;11.85;;;8.98;;
44120;SDS011;29783;52.504;13.478;2023-12-14T10:12:10;12.45;;;9.35;;
44120;SDS011;29783;52.504;13.478;2023-12-14T10:14:36;12.60;;;9.25;;
44120;SDS011;29783;52.504;13.478;2023-12-14T10:17:19;12.05;;;9.35;;
44120;SDS011;29783;52.504;13.478;2023-12-14T10:19:46;13.32;;;10.43;;
44120;SDS011;29783;52.504;13.478;2023-12-14T10:22:13;14.75;;;10.60;;
44120;SDS011;29783;52.504;13.478;2023-12-14T10:24:42;16.30;;;11.90;;
44120;SDS011;29783;52.504;13.478;2023-12-14T10:27:09;12.30;;;10.70;;
44120;SDS011;29783;52.504;13.478;2023-12-14T10:29:39;11.60;;;9.70;;
44120;SDS011;29783;52.504;13.478;2023-12-14T10:32:05;15.60;;;10.40;;
44120;SDS011;29783;52.504;13.478;2023-12-14T10:34:35;11.10;;;9.38;;
44120;SDS011;29783;52.504;13.478;2023-12-14T10:37:01;15.15;;;10.77;;
44120;SDS011;29783;52.504;13.478;2023-12-14T10:39:30;12.98;;;10.48;;
44120;SDS011;29783;52.504;13.478;2023-12-14T10:41:58;12.93;;;10.48;;
44120;SDS011;29783;52.504;13.478;2023-12-14T10:44:27;12.98;;;10.80;;
44120;SDS011;29783;52.504;13.478;2023-12-14T10:46:57;12.85;;;10.00;;
44120;SDS011;29783;52.504;13.478;2023-12-14T10:49:27;14.65;;;10.80;;
44120;SDS011;29783;52.504;13.478;2023-12-14T10:51:55;16.35;;;12.00;;
44120;SDS011;29783;52.504;13.478;2023-12-14T10:54:23;12.90;;;11.00;;
44120;SDS011;29783;52.504;13.478;2023-12-14T10:56:54;15.80;;;11.15;;
44120;SDS011;29783;52.504;13.478;2023-12-14T10:59:21;14.00;;;11.65;;
44120;SDS011;29783;52.504;13.478;2023-12-14T11:01:52;16.75;;;11.88;;
44120;SDS011;29783;52.504;13.478;2023-12-14T11:04:21;16.83;;;12.18;;
44120;SDS011;29783;52.504;13.478;2023-12-14T11:06:47;17.25;;;12.50;;
44120;SDS011;29783;52.504;13.478;2023-12-14T11:09:13;14.90;;;11.32;;
44120;SDS011;29783;52.504;13.478;2023-12-14T11:14:18;13.35;;;10.23;;
44120;SDS011;29783;52.504;13.478;2023-12-14T11:16:44;13.48;;;10.93;;
44120;SDS011;29783;52.504;13.478;2023-12-14T11:21:46;13.98;;;10.48;;
44120;SDS011;29783;52.504;13.478;2023-12-14T11:24:18;14.27;;;10.95;;
44120;SDS011;29783;52.504;13.478;2023-12-14T11:26:44;14.30;;;10.63;;
44120;SDS011;29783;52.504;13.478;2023-12-14T11:29:09;14.82;;;10.80;;
44120;SDS011;29783;52.504;13.478;2023-12-14T11:31:36;16.25;;;10.13;;
44120;SDS011;29783;52.504;13.478;2023-12-14T11:34:02;16.77;;;10.23;;
44120;SDS011;29783;52.504;13.478;2023-12-14T11:36:29;22.38;;;11.57;;
44120;SDS011;29783;52.504;13.478;2023-12-14T11:38:55;12.73;;;10.52;;
44120;SDS011;29783;52.504;13.478;2023-12-14T11:41:20;11.68;;;9.88;;
44120;SDS011;29783;52.504;13.478;2023-12-14T11:43:46;14.65;;;10.70;;
44120;SDS011;29783;52.504;13.478;2023-12-14T11:46:14;14.65;;;10.32;;
44120;SDS011;29783;52.504;13.478;2023-12-14T11:48:40;11.30;;;9.38;;
44120;SDS011;29783;52.504;13.478;2023-12-14T11:51:09;11.30;;;8.95;;
44120;SDS011;29783;52.504;13.478;2023-12-14T11:53:35;13.73;;;9.80;;
44120;SDS011;29783;52.504;13.478;2023-12-14T11:56:04;11.50;;;8.80;;
44120;SDS011;29783;52.504;13.478;2023-12-14T11:58:31;13.13;;;10.32;;
44120;SDS011;29783;52.504;13.478;2023-12-14T12:01:12;12.20;;;9.73;;
44120;SDS011;29783;52.504;13.478;2023-12-14T12:03:42;12.93;;;9.23;;
44120;SDS011;29783;52.504;13.478;2023-12-14T12:06:09;10.63;;;8.88;;
44120;SDS011;29783;52.504;13.478;2023-12-14T12:08:53;11.60;;;8.85;;
44120;SDS011;29783;52.504;13.478;2023-12-14T12:11:22;18.65;;;9.63;;
44120;SDS011;29783;52.504;13.478;2023-12-14T12:13:53;11.02;;;9.25;;
44120;SDS011;29783;52.504;13.478;2023-12-14T12:16:21;14.15;;;9.65;;
44120;SDS011;29783;52.504;13.478;2023-12-14T12:18:46;10.98;;;9.43;;
44120;SDS011;29783;52.504;13.478;2023-12-14T12:21:12;12.50;;;9.95;;
44120;SDS011;29783;52.504;13.478;2023-12-14T12:23:38;15.25;;;10.13;;
44120;SDS011;29783;52.504;13.478;2023-12-14T12:26:04;13.77;;;10.45;;
44120;SDS011;29783;52.504;13.478;2023-12-14T12:28:30;11.88;;;9.23;;
44120;SDS011;29783;52.504;13.478;2023-12-14T12:30:56;13.50;;;10.43;;
44120;SDS011;29783;52.504;13.478;2023-12-14T12:33:22;12.88;;;9.65;;
44120;SDS011;29783;52.504;13.478;2023-12-14T12:35:48;16.30;;;10.38;;
44120;SDS011;29783;52.504;13.478;2023-12-14T12:38:14;15.25;;;10.15;;
44120;SDS011;29783;52.504;13.478;2023-12-14T12:40:41;12.48;;;9.18;;
44120;SDS011;29783;52.504;13.478;2023-12-14T12:43:07;12.70;;;9.80;;
44120;SDS011;29783;52.504;13.478;2023-12-14T12:45:32;12.13;;;9.90;;
44120;SDS011;29783;52.504;13.478;2023-12-14T12:47:58;12.70;;;10.18;;
44120;SDS011;29783;52.504;13.478;2023-12-14T12:50:23;11.60;;;9.75;;
44120;SDS011;29783;52.504;13.478;2023-12-14T12:52:49;16.35;;;9.80;;
44120;SDS011;29783;52.504;13.478;2023-12-14T12:55:16;20.02;;;10.32;;
44120;SDS011;29783;52.504;13.478;2023-12-14T12:57:41;13.60;;;9.98;;
44120;SDS011;29783;52.504;13.478;2023-12-14T13:00:07;13.43;;;10.15;;
44120;SDS011;29783;52.504;13.478;2023-12-14T13:02:37;13.80;;;9.38;;
44120;SDS011;29783;52.504;13.478;2023-12-14T13:05:07;13.57;;;10.02;;
44120;SDS011;29783;52.504;13.478;2023-12-14T13:07:34;11.00;;;8.77;;
44120;SDS011;29783;52.504;13.478;2023-12-14T13:10:00;11.43;;;9.52;;
44120;SDS011;29783;52.504;13.478;2023-12-14T13:12:25;17.48;;;9.38;;
44120;SDS011;29783;52.504;13.478;2023-12-14T13:14:51;10.90;;;8.77;;
44120;SDS011;29783;52.504;13.478;2023-12-14T13:17:17;11.95;;;9.27;;
44120;SDS011;29783;52.504;13.478;2023-12-14T13:19:43;12.82;;;8.63;;
44120;SDS011;29783;52.504;13.478;2023-12-14T13:22:09;15.00;;;9.73;;
44120;SDS011;29783;52.504;13.478;2023-12-14T13:24:36;12.25;;;9.27;;
44120;SDS011;29783;52.504;13.478;2023-12-14T13:27:02;9.38;;;8.20;;
44120;SDS011;29783;52.504;13.478;2023-12-14T13:29:29;12.95;;;9.75;;
44120;SDS011;29783;52.504;13.478;2023-12-14T13:31:57;11.05;;;9.43;;
44120;SDS011;29783;52.504;13.478;2023-12-14T13:34:22;11.82;;;9.60;;
44120;SDS011;29783;52.504;13.478;2023-12-14T13:36:48;14.00;;;10.15;;
44120;SDS011;29783;52.504;13.478;2023-12-14T13:39:13;11.98;;;9.90;;
44120;SDS011;29783;52.504;13.478;2023-12-14T13:41:39;14.13;;;10.10;;
44120;SDS011;29783;52.504;13.478;2023-12-14T13:44:05;16.08;;;11.15;;
44120;SDS011;29783;52.504;13.478;2023-12-14T13:46:30;14.70;;;10.63;;
44120;SDS011;29783;52.504;13.478;2023-12-14T13:48:56;13.80;;;10.93;;
44120;SDS011;29783;52.504;13.478;2023-12-14T13:51:21;17.33;;;10.63;;
44120;SDS011;29783;52.504;13.478;2023-12-14T13:53:47;15.15;;;10.80;;
44120;SDS011;29783;52.504;13.478;2023-12-14T13:56:13;15.80;;;13.57;;
44120;SDS011;29783;52.504;13.478;2023-12-14T13:58:38;16.77;;;12.70;;
44120;SDS011;29783;52.504;13.478;2023-12-14T14:01:04;17.85;;;14.18;;
44120;SDS011;29783;52.504;13.478;2023-12-14T14:03:34;17.75;;;13.00;;
44120;SDS011;29783;52.504;13.478;2023-12-14T14:06:00;20.40;;;14.00;;
44120;SDS011;29783;52.504;13.478;2023-12-14T14:08:27;15.77;;;12.88;;
44120;SDS011;29783;52.504;13.478;2023-12-14T14:10:52;14.38;;;11.40;;
44120;SDS011;29783;52.504;13.478;2023-12-14T14:13:18;17.70;;;13.68;;
44120;SDS011;29783;52.504;13.478;2023-12-14T14:15:45;19.88;;;13.20;;
44120;SDS011;29783;52.504;13.478;2023-12-14T14:18:11;15.43;;;12.00;;
44120;SDS011;29783;52.504;13.478;2023-12-14T14:20:36;15.32;;;11.65;;
44120;SDS011;29783;52.504;13.478;2023-12-14T14:23:02;17.25;;;11.20;;
44120;SDS011;29783;52.504;13.478;2023-12-14T14:25:27;14.82;;;10.70;;
44120;SDS011;29783;52.504;13.478;2023-12-14T14:27:53;14.93;;;11.00;;